Time;durP1;ratioP1;P1;durP2;ratioP2;P2;SDS_P1;SDS_P2;PMS_P1;PMS_P2;Temp;Humidity;BMP_temperature;BMP_pressure;BME280_temperature;BME280_humidity;BME280_pressure;Samples;Min_cycle;Max_cycle;Signal;HPM_P1;HPM_P2
2022/12/23 06:46:39;;;;;;;0.32;0.20;;;13.30;99.90;;;;;;5362373;23;20048;-83
2022/12/23 06:49:06;;;;;;;0.20;0.20;;;13.30;99.90;;;;;;4923130;29;20044;-83
2022/12/23 06:51:39;;;;;;;0.25;0.22;;;13.30;99.90;;;;;;4921339;29;20071;-82
2022/12/23 06:54:06;;;;;;;2.55;0.30;;;13.30;99.90;;;;;;4928572;29;20067;-83
2022/12/23 06:56:33;;;;;;;2.58;0.30;;;13.30;99.90;;;;;;4911724;29;20063;-82
2022/12/23 06:58:59;;;;;;;1.35;0.20;;;13.30;99.90;;;;;;4910797;29;20046;-82
2022/12/23 07:01:26;;;;;;;0.10;0.10;;;13.30;99.90;;;;;;4923804;23;20470;-81
2022/12/23 07:03:53;;;;;;;1.08;0.20;;;13.70;99.90;;;;;;4923949;29;20112;-83
2022/12/23 07:06:19;;;;;;;0.35;0.25;;;13.40;99.90;;;;;;4912197;29;20055;-82
2022/12/23 07:08:46;;;;;;;1.08;0.20;;;13.40;99.90;;;;;;4915577;29;20116;-82
2022/12/23 07:11:13;;;;;;;0.30;0.25;;;13.40;99.90;;;;;;4919183;29;20063;-82
2022/12/23 07:13:39;;;;;;;0.20;0.20;;;13.40;99.90;;;;;;4912026;29;20068;-80
2022/12/23 07:16:07;;;;;;;0.30;0.28;;;13.40;99.90;;;;;;4914706;29;20056;-82
2022/12/23 07:18:35;;;;;;;0.63;0.40;;;13.40;99.90;;;;;;4916721;29;20112;-78
2022/12/23 07:21:02;;;;;;;0.40;0.30;;;13.40;99.90;;;;;;4913529;29;20067;-82
2022/12/23 07:23:29;;;;;;;0.50;0.40;;;13.40;99.90;;;;;;4912492;29;20537;-82
2022/12/23 07:25:56;;;;;;;1.40;0.60;;;13.40;99.90;;;;;;4911250;29;20063;-81
2022/12/23 07:28:23;;;;;;;0.77;0.57;;;13.40;99.90;;;;;;4906298;29;20052;-81
2022/12/23 07:30:50;;;;;;;0.80;0.50;;;13.40;99.90;;;;;;4912155;29;20049;-80
2022/12/23 07:33:17;;;;;;;0.63;0.40;;;13.40;99.90;;;;;;4911096;29;20052;-81
2022/12/23 07:35:43;;;;;;;0.40;0.40;;;13.40;99.90;;;;;;4909224;29;20553;-82
2022/12/23 07:38:10;;;;;;;3.63;0.70;;;13.40;99.90;;;;;;4912514;29;20057;-82
2022/12/23 07:40:37;;;;;;;0.60;0.55;;;13.40;99.90;;;;;;4911252;29;20064;-80
2022/12/23 07:43:04;;;;;;;3.70;0.70;;;13.40;99.90;;;;;;4911048;29;20124;-82
2022/12/23 07:45:31;;;;;;;1.00;0.70;;;13.40;99.90;;;;;;4909371;29;20470;-82
2022/12/23 07:47:59;;;;;;;3.63;0.57;;;13.30;99.90;;;;;;4905030;29;20418;-82
2022/12/23 07:50:26;;;;;;;0.52;0.47;;;13.30;99.90;;;;;;4903960;29;20156;-80
2022/12/23 07:52:53;;;;;;;2.47;0.30;;;13.30;99.90;;;;;;4901471;29;20144;-80
2022/12/23 07:55:20;;;;;;;0.47;0.30;;;13.30;99.90;;;;;;4907621;29;20336;-82
2022/12/23 07:57:50;;;;;;;2.65;0.30;;;13.20;99.90;;;;;;4909374;29;20052;-81
2022/12/23 08:00:18;;;;;;;0.25;0.25;;;13.20;99.90;;;;;;4907443;29;20083;-82
2022/12/23 08:02:46;;;;;;;0.77;0.45;;;13.20;99.90;;;;;;4895487;29;20077;-81
2022/12/23 08:05:13;;;;;;;0.28;0.28;;;13.20;99.90;;;;;;4905519;29;20060;-82
2022/12/23 08:07:41;;;;;;;0.30;0.30;;;13.20;99.90;;;;;;4903908;29;20543;-82
2022/12/23 08:10:08;;;;;;;0.57;0.50;;;13.20;99.90;;;;;;4909568;29;20049;-82
2022/12/23 08:12:34;;;;;;;0.55;0.55;;;13.20;99.90;;;;;;4907190;29;20053;-83
2022/12/23 08:15:01;;;;;;;1.27;0.50;;;13.20;99.90;;;;;;4910580;29;20076;-83
2022/12/23 08:17:29;;;;;;;2.40;0.50;;;13.20;99.90;;;;;;4905902;29;20057;-79
2022/12/23 08:19:59;;;;;;;0.50;0.50;;;13.20;99.90;;;;;;4907008;29;20044;-83
2022/12/23 08:22:25;;;;;;;0.60;0.45;;;13.20;99.90;;;;;;4911201;29;20047;-82
2022/12/23 08:24:52;;;;;;;1.85;0.40;;;13.20;99.90;;;;;;4911294;29;20049;-82
2022/12/23 08:27:19;;;;;;;1.55;0.50;;;13.20;99.90;;;;;;4912766;29;20076;-83
2022/12/23 08:29:45;;;;;;;0.43;0.32;;;13.20;99.90;;;;;;4912366;29;20530;-84
2022/12/23 08:32:12;;;;;;;0.38;0.38;;;13.20;99.90;;;;;;4911734;29;20095;-82
2022/12/23 08:34:39;;;;;;;0.63;0.40;;;13.20;99.90;;;;;;4910560;29;20104;-83
2022/12/23 08:37:06;;;;;;;2.38;0.73;;;13.20;99.90;;;;;;4907410;29;20047;-83
2022/12/23 08:39:32;;;;;;;1.10;0.50;;;13.20;99.90;;;;;;4911843;29;20049;-82
2022/12/23 08:41:59;;;;;;;0.73;0.40;;;13.30;99.90;;;;;;4911497;29;20132;-83
2022/12/23 08:44:26;;;;;;;1.30;0.43;;;13.30;99.90;;;;;;4909949;29;20116;-80
2022/12/23 08:46:54;;;;;;;0.60;0.50;;;13.30;99.90;;;;;;4911021;29;20048;-83
2022/12/23 08:49:21;;;;;;;1.48;0.50;;;13.30;99.90;;;;;;4911555;29;20048;-82
2022/12/23 08:51:48;;;;;;;0.40;0.40;;;13.30;99.90;;;;;;4907656;29;20057;-82
2022/12/23 08:54:16;;;;;;;1.30;0.50;;;13.40;99.90;;;;;;4910676;29;20048;-83
2022/12/23 08:56:42;;;;;;;0.30;0.30;;;13.40;99.90;;;;;;4907149;29;20108;-82
2022/12/23 08:59:14;;;;;;;1.33;0.75;;;13.40;99.90;;;;;;4911055;29;20050;-83
2022/12/23 09:01:45;;;;;;;0.88;0.60;;;13.40;99.90;;;;;;4908773;29;20109;-82
2022/12/23 09:04:12;;;;;;;1.02;0.50;;;13.40;99.90;;;;;;4909572;29;20049;-82
2022/12/23 09:06:41;;;;;;;0.43;0.40;;;13.40;99.90;;;;;;4909174;29;20056;-81
2022/12/23 09:09:09;;;;;;;0.43;0.25;;;13.40;99.90;;;;;;4910277;29;20629;-83
2022/12/23 09:11:36;;;;;;;0.93;0.60;;;13.50;99.90;;;;;;4907330;29;20053;-81
2022/12/23 09:14:04;;;;;;;0.90;0.47;;;13.50;99.90;;;;;;4910312;29;20044;-81
2022/12/23 09:16:31;;;;;;;1.05;0.32;;;13.50;99.90;;;;;;4911996;29;20052;-82
2022/12/23 09:18:58;;;;;;;0.68;0.47;;;13.50;99.90;;;;;;4911453;29;20045;-81
2022/12/23 09:21:24;;;;;;;1.05;0.50;;;13.50;99.90;;;;;;4907798;29;20045;-83
2022/12/23 09:23:52;;;;;;;1.33;0.50;;;13.60;99.90;;;;;;4897041;29;20056;-83
2022/12/23 09:26:24;;;;;;;0.95;0.63;;;13.60;99.90;;;;;;4907806;29;20053;-82
2022/12/23 09:28:51;;;;;;;0.55;0.40;;;13.60;99.90;;;;;;4896606;29;20049;-83
2022/12/23 09:31:19;;;;;;;2.40;0.65;;;13.60;99.90;;;;;;4906647;29;20064;-82
2022/12/23 09:33:48;;;;;;;1.00;0.60;;;13.60;99.90;;;;;;4907377;29;20053;-81
2022/12/23 09:36:15;;;;;;;1.50;0.40;;;13.60;99.90;;;;;;4908848;29;20063;-82
2022/12/23 09:38:42;;;;;;;1.10;0.70;;;13.60;99.90;;;;;;4902331;29;20571;-84
2022/12/23 09:41:39;;;;;;;0.30;0.30;;;13.60;99.90;;;;;;4906527;29;20086;-85
2022/12/23 09:44:42;;;;;;;0.70;0.60;;;13.60;99.90;;;;;;4905367;29;20052;-82
2022/12/23 09:47:14;;;;;;;2.88;0.70;;;13.70;99.90;;;;;;4902361;29;20116;-82
2022/12/23 09:49:51;;;;;;;0.68;0.57;;;13.70;99.90;;;;;;4907069;29;20056;-79
2022/12/23 09:52:24;;;;;;;2.95;1.10;;;13.70;99.90;;;;;;4907801;29;20068;-79
2022/12/23 09:54:53;;;;;;;3.05;0.85;;;13.60;99.90;;;;;;4907311;29;20068;-80
2022/12/23 09:57:21;;;;;;;0.50;0.50;;;13.60;99.90;;;;;;4921200;29;20063;-83
2022/12/23 10:00:11;;;;;;;0.70;0.60;;;13.60;99.90;;;;;;4908935;29;20059;-82
2022/12/23 10:03:08;;;;;;;0.30;0.30;;;13.60;99.90;;;;;;4907777;29;20055;-82
2022/12/23 10:05:45;;;;;;;2.40;0.80;;;13.60;99.90;;;;;;4907981;29;20056;-82
2022/12/23 10:08:15;;;;;;;1.00;0.30;;;13.60;99.90;;;;;;4907124;29;20068;-82
2022/12/23 10:10:45;;;;;;;1.65;1.17;;;13.60;99.90;;;;;;4908942;29;20119;-84
2022/12/23 10:13:36;;;;;;;1.23;0.95;;;13.60;99.90;;;;;;4908572;29;20068;-81
2022/12/23 10:16:08;;;;;;;2.17;0.90;;;13.60;99.90;;;;;;4897095;29;20059;-81
2022/12/23 10:18:50;;;;;;;1.90;1.00;;;13.60;99.90;;;;;;4912091;29;20076;-80
2022/12/23 10:21:52;;;;;;;1.48;1.10;;;13.60;99.90;;;;;;4910855;29;20059;-83
2022/12/23 10:24:37;;;;;;;1.17;0.63;;;13.60;99.90;;;;;;4911487;29;20041;-82
2022/12/23 10:27:31;;;;;;;2.15;0.70;;;13.60;99.90;;;;;;4909131;29;20131;-82
2022/12/23 10:30:12;;;;;;;1.17;0.43;;;13.60;99.90;;;;;;4917860;29;20077;-81
2022/12/23 10:33:15;;;;;;;0.68;0.40;;;13.60;99.90;;;;;;4912073;29;20056;-80
2022/12/23 10:35:51;;;;;;;0.55;0.40;;;13.60;99.90;;;;;;4909114;29;20115;-80
2022/12/23 10:38:17;;;;;;;0.30;0.30;;;13.60;99.90;;;;;;4909387;29;20048;-80
2022/12/23 10:41:04;;;;;;;0.60;0.60;;;13.50;99.90;;;;;;4907785;29;20530;-82
2022/12/23 10:43:53;;;;;;;1.17;0.50;;;13.50;99.90;;;;;;4908871;29;20059;-81
2022/12/23 10:46:42;;;;;;;0.40;0.40;;;13.60;99.90;;;;;;4906642;29;20062;-82
2022/12/23 10:49:25;;;;;;;0.50;0.47;;;13.50;99.90;;;;;;4908483;29;20071;-81
2022/12/23 10:51:57;;;;;;;1.17;0.32;;;13.50;99.90;;;;;;4901638;29;20059;-80
2022/12/23 10:54:33;;;;;;;0.47;0.40;;;13.50;99.90;;;;;;4909943;29;20052;-81
2022/12/23 10:57:01;;;;;;;0.30;0.30;;;13.60;99.90;;;;;;4909837;29;20061;-80
2022/12/23 10:59:32;;;;;;;0.73;0.30;;;13.60;99.90;;;;;;4907717;29;20078;-82
2022/12/23 11:02:24;;;;;;;18.27;10.77;;;13.60;99.90;;;;;;4908106;29;20064;-82
2022/12/23 11:04:51;;;;;;;0.68;0.47;;;13.60;99.90;;;;;;4902596;29;20052;-82
2022/12/23 11:07:21;;;;;;;0.73;0.50;;;13.70;99.90;;;;;;4908881;29;20052;-81
2022/12/23 11:10:31;;;;;;;0.73;0.30;;;13.60;99.90;;;;;;4904891;29;20664;-81
2022/12/23 11:12:59;;;;;;;0.30;0.30;;;13.70;99.90;;;;;;4907793;29;20579;-81
2022/12/23 11:15:29;;;;;;;0.35;0.35;;;13.70;99.90;;;;;;4900164;29;20052;-78
2022/12/23 11:18:05;;;;;;;1.00;0.50;;;13.70;99.90;;;;;;4908916;29;20076;-81
2022/12/23 11:20:34;;;;;;;0.70;0.45;;;13.70;99.90;;;;;;4907127;29;20677;-81
2022/12/23 11:23:03;;;;;;;0.20;0.20;;;13.80;99.90;;;;;;4911097;29;20104;-82
2022/12/23 11:25:35;;;;;;;1.00;0.63;;;13.70;99.90;;;;;;4909326;29;20160;-82
2022/12/23 11:28:10;;;;;;;0.45;0.40;;;13.70;99.90;;;;;;4908243;29;20051;-79
2022/12/23 11:30:46;;;;;;;0.35;0.35;;;13.70;99.90;;;;;;4898693;29;20481;-82
2022/12/23 11:33:24;;;;;;;1.15;0.52;;;13.70;99.90;;;;;;4906465;29;20107;-81
2022/12/23 11:36:06;;;;;;;0.50;0.50;;;13.80;99.90;;;;;;4910828;29;20076;-80
2022/12/23 11:38:36;;;;;;;1.08;0.40;;;13.80;99.90;;;;;;4906270;29;20438;-81
2022/12/23 11:41:04;;;;;;;0.57;0.30;;;13.80;99.90;;;;;;4905891;29;20049;-79
2022/12/23 11:43:32;;;;;;;0.30;0.30;;;13.80;99.90;;;;;;4908957;29;20072;-80
2022/12/23 11:46:24;;;;;;;0.50;0.40;;;13.90;99.90;;;;;;4904588;29;20067;-82
2022/12/23 11:49:03;;;;;;;0.45;0.30;;;13.90;99.90;;;;;;4902534;29;20044;-83
2022/12/23 11:51:30;;;;;;;0.40;0.25;;;13.90;99.90;;;;;;4902804;29;20068;-81
2022/12/23 11:54:03;;;;;;;0.90;0.30;;;13.90;99.90;;;;;;4905548;29;20049;-83
2022/12/23 11:56:38;;;;;;;1.00;0.50;;;13.90;99.90;;;;;;4901835;29;20518;-83
2022/12/23 11:59:23;;;;;;;0.70;0.50;;;14.00;99.90;;;;;;4907733;29;20138;-82
2022/12/23 12:01:50;;;;;;;0.57;0.32;;;14.00;99.90;;;;;;4899793;29;20048;-82
2022/12/23 12:04:23;;;;;;;0.93;0.68;;;14.30;99.90;;;;;;4907629;29;20045;-82
2022/12/23 12:06:51;;;;;;;0.80;0.52;;;14.00;99.90;;;;;;4901776;29;20463;-79
2022/12/23 12:09:23;;;;;;;0.30;0.30;;;14.00;99.90;;;;;;4895977;29;20045;-80
2022/12/23 12:12:02;;;;;;;0.45;0.40;;;14.00;99.90;;;;;;4905928;29;20113;-83
2022/12/23 12:14:41;;;;;;;0.40;0.35;;;14.00;99.90;;;;;;4907395;29;20063;-81
2022/12/23 12:17:20;;;;;;;0.70;0.70;;;14.00;99.90;;;;;;4903266;29;20067;-83
2022/12/23 12:20:05;;;;;;;0.60;0.40;;;14.10;99.90;;;;;;4906188;29;20112;-83
2022/12/23 12:22:35;;;;;;;1.85;0.32;;;14.10;99.90;;;;;;4895898;29;20073;-83
2022/12/23 12:25:18;;;;;;;1.08;0.45;;;14.10;99.90;;;;;;4906658;29;20052;-82
2022/12/23 12:27:58;;;;;;;1.00;0.40;;;14.10;99.90;;;;;;4906079;29;20048;-82
2022/12/23 12:30:33;;;;;;;0.52;0.45;;;14.00;99.90;;;;;;4905508;29;20095;-82
2022/12/23 12:33:05;;;;;;;0.57;0.57;;;14.00;99.90;;;;;;4905083;29;20478;-81
2022/12/23 12:35:50;;;;;;;1.90;0.85;;;14.00;99.90;;;;;;4905833;29;20053;-81
2022/12/23 12:38:28;;;;;;;2.45;0.50;;;14.00;99.90;;;;;;4903701;29;20048;-83
2022/12/23 12:41:13;;;;;;;1.13;0.60;;;14.00;99.90;;;;;;4902225;29;20048;-83
2022/12/23 12:44:00;;;;;;;0.73;0.47;;;14.00;99.90;;;;;;4899800;29;20533;-83
2022/12/23 12:46:35;;;;;;;0.75;0.50;;;14.00;99.90;;;;;;4898272;29;20085;-81
2022/12/23 12:49:19;;;;;;;1.13;0.70;;;13.90;99.90;;;;;;4905743;29;20056;-83
2022/12/23 12:52:02;;;;;;;0.70;0.50;;;13.90;99.90;;;;;;4916885;29;20101;-82
2022/12/23 12:55:00;;;;;;;0.40;0.40;;;14.00;99.90;;;;;;4903938;29;20049;-82
2022/12/23 12:57:35;;;;;;;0.95;0.57;;;14.00;99.90;;;;;;4917077;29;20040;-84
2022/12/23 13:00:04;;;;;;;0.57;0.40;;;14.00;99.90;;;;;;4919060;29;20033;-84
2022/12/23 13:02:53;;;;;;;2.25;0.60;;;14.00;99.90;;;;;;4926828;23;20529;-82
2022/12/23 13:05:30;;;;;;;0.70;0.60;;;14.00;99.90;;;;;;4895534;29;20507;-84
2022/12/23 13:08:13;;;;;;;0.70;0.50;;;14.00;99.90;;;;;;4895941;29;20052;-85
2022/12/23 13:10:58;;;;;;;1.58;0.70;;;14.00;99.90;;;;;;4895510;29;20064;-82
2022/12/23 13:14:07;;;;;;;1.33;0.75;;;14.00;99.90;;;;;;4893507;29;20056;-83
2022/12/23 13:17:11;;;;;;;1.88;0.70;;;14.00;99.90;;;;;;4894524;29;20057;-83
2022/12/23 13:19:47;;;;;;;1.20;0.40;;;14.00;99.90;;;;;;4888989;29;20052;-84
2022/12/23 13:22:24;;;;;;;0.85;0.45;;;14.00;99.90;;;;;;4893138;29;20483;-81
2022/12/23 13:25:22;;;;;;;0.95;0.50;;;14.00;99.90;;;;;;4888822;29;20124;-83
2022/12/23 13:27:56;;;;;;;0.88;0.50;;;14.10;99.90;;;;;;4875737;29;20052;-83
2022/12/23 13:30:27;;;;;;;1.27;0.50;;;14.10;99.90;;;;;;4891897;29;20060;-82
2022/12/23 13:33:11;;;;;;;;;;;14.10;99.90;;;;;;4892676;29;20499;-83
2022/12/23 13:35:49;;;;;;;3.58;0.80;;;14.10;99.90;;;;;;4896067;29;19966;-82
2022/12/23 13:38:33;;;;;;;0.85;0.60;;;14.10;99.90;;;;;;4887149;29;20056;-83
2022/12/23 13:41:22;;;;;;;0.38;0.38;;;14.10;99.90;;;;;;4895772;29;20409;-82
2022/12/23 13:43:59;;;;;;;2.15;0.60;;;14.20;99.90;;;;;;4903098;29;20502;-81
2022/12/23 13:46:29;;;;;;;2.42;0.63;;;14.10;99.90;;;;;;4904018;29;20076;-82
2022/12/23 13:49:02;;;;;;;0.80;0.55;;;14.10;99.90;;;;;;4885217;29;20276;-83
2022/12/23 13:51:38;;;;;;;3.97;0.80;;;14.10;99.90;;;;;;4888738;29;20057;-82
2022/12/23 13:54:23;;;;;;;1.88;0.98;;;14.20;99.90;;;;;;4892726;29;20502;-82
2022/12/23 13:57:07;;;;;;;0.47;0.40;;;14.20;99.90;;;;;;4892771;29;20486;-83
2022/12/23 13:59:42;;;;;;;2.03;0.93;;;14.20;99.90;;;;;;4889228;29;20053;-82
2022/12/23 14:02:34;;;;;;;1.60;0.70;;;14.20;99.90;;;;;;4906115;29;20055;-83
2022/12/23 14:05:02;;;;;;;1.23;0.60;;;14.10;99.90;;;;;;4889701;29;20088;-84
2022/12/23 14:07:32;;;;;;;0.75;0.40;;;14.20;99.90;;;;;;4892721;29;20071;-83
2022/12/23 14:10:09;;;;;;;0.93;0.50;;;14.10;99.90;;;;;;4890635;29;20124;-82
2022/12/23 14:12:39;;;;;;;2.45;0.60;;;14.20;99.90;;;;;;4888675;29;20059;-82
2022/12/23 14:15:30;;;;;;;2.67;0.60;;;14.10;99.90;;;;;;4892817;29;20524;-83
2022/12/23 14:18:24;;;;;;;2.05;0.75;;;14.10;99.90;;;;;;4890242;29;20052;-82
2022/12/23 14:21:17;;;;;;;1.50;0.70;;;14.20;99.90;;;;;;4887311;29;20060;-83
2022/12/23 14:23:50;;;;;;;3.97;0.90;;;14.10;99.90;;;;;;4888694;29;20060;-82
2022/12/23 14:26:37;;;;;;;1.23;0.93;;;14.10;99.90;;;;;;4885227;29;20442;-84
2022/12/23 14:29:31;;;;;;;2.58;0.70;;;14.10;99.90;;;;;;4887466;29;20091;-82
2022/12/23 14:31:58;;;;;;;1.45;0.82;;;14.10;99.90;;;;;;4891739;29;20063;-83
2022/12/23 14:34:31;;;;;;;2.55;1.00;;;14.10;99.90;;;;;;4895747;29;20059;-83
2022/12/23 14:37:34;;;;;;;3.70;0.90;;;14.10;99.90;;;;;;4889796;29;20056;-81
2022/12/23 14:40:35;;;;;;;3.70;1.40;;;14.10;99.90;;;;;;4851010;29;20054;-82
2022/12/23 14:43:20;;;;;;;3.60;1.00;;;14.10;99.90;;;;;;4891378;29;20045;-82
2022/12/23 14:46:05;;;;;;;3.50;1.05;;;14.10;99.90;;;;;;4892944;29;20112;-84
2022/12/23 14:48:34;;;;;;;1.35;0.73;;;14.10;99.90;;;;;;4893144;29;20077;-85
2022/12/23 14:51:23;;;;;;;3.22;1.10;;;14.10;99.90;;;;;;4884721;29;20418;-83
2022/12/23 14:53:53;;;;;;;4.18;1.52;;;14.20;99.90;;;;;;4891169;29;20426;-83
2022/12/23 14:56:37;;;;;;;2.33;1.17;;;14.10;99.90;;;;;;4892918;29;20140;-83
2022/12/23 14:59:10;;;;;;;3.53;1.10;;;14.10;99.90;;;;;;4892912;29;20087;-84
2022/12/23 15:01:46;;;;;;;6.03;1.27;;;14.10;99.90;;;;;;4894394;29;20084;-82
2022/12/23 15:04:21;;;;;;;3.28;1.20;;;14.10;99.90;;;;;;4888697;29;20049;-82
2022/12/23 15:07:04;;;;;;;3.05;1.25;;;14.20;99.90;;;;;;4885949;29;20053;-82
2022/12/23 15:09:38;;;;;;;4.28;1.30;;;14.10;99.90;;;;;;4887316;29;20072;-81
2022/12/23 15:12:14;;;;;;;2.05;1.13;;;14.20;99.90;;;;;;4889035;29;20421;-82
2022/12/23 15:14:51;;;;;;;5.47;1.40;;;14.10;99.90;;;;;;4895682;29;20044;-82
2022/12/23 15:17:26;;;;;;;3.67;1.33;;;14.10;99.90;;;;;;4897506;29;20045;-83
2022/12/23 15:20:00;;;;;;;5.00;1.20;;;14.10;99.90;;;;;;4898150;29;20545;-83
2022/12/23 15:22:31;;;;;;;4.80;1.60;;;14.10;99.90;;;;;;4896967;29;20127;-84
2022/12/23 15:24:58;;;;;;;2.35;1.30;;;14.10;99.90;;;;;;4898497;29;20116;-81
2022/12/23 15:27:26;;;;;;;3.97;1.30;;;14.10;99.90;;;;;;4891696;29;20048;-82
2022/12/23 15:29:55;;;;;;;;;;;14.10;99.90;;;;;;4896157;29;20053;-82
2022/12/23 15:32:24;;;;;;;6.00;1.23;;;14.10;99.90;;;;;;4895392;29;19924;-83
2022/12/23 15:34:54;;;;;;;4.28;1.67;;;14.10;99.90;;;;;;4894250;29;20428;-83
2022/12/23 15:37:25;;;;;;;;;;;14.10;99.90;;;;;;4889866;29;20053;-83
2022/12/23 15:39:51;;;;;;;4.30;1.58;;;14.10;99.90;;;;;;4895898;29;19930;-83
2022/12/23 15:42:34;;;;;;;4.90;2.05;;;14.00;99.90;;;;;;4890437;29;20486;-83
2022/12/23 15:45:22;;;;;;;4.50;1.50;;;14.10;99.90;;;;;;4893006;29;20049;-84
2022/12/23 15:47:49;;;;;;;5.63;2.17;;;14.10;99.90;;;;;;4895831;29;20056;-83
2022/12/23 15:50:17;;;;;;;6.97;2.70;;;14.00;99.90;;;;;;4892426;29;20060;-84
2022/12/23 15:52:46;;;;;;;3.03;1.33;;;14.00;99.90;;;;;;4890822;29;20183;-83
2022/12/23 15:55:17;;;;;;;4.70;1.30;;;14.10;99.90;;;;;;4895450;29;20049;-83
2022/12/23 15:57:47;;;;;;;4.75;1.83;;;14.10;99.90;;;;;;4896076;29;20074;-83
2022/12/23 16:00:28;;;;;;;6.28;2.15;;;14.00;99.90;;;;;;4896743;29;20100;-82
2022/12/23 16:02:56;;;;;;;1.60;1.15;;;14.00;99.90;;;;;;4891873;29;20076;-85
2022/12/23 16:05:31;;;;;;;2.15;1.15;;;14.10;99.90;;;;;;4896752;29;20084;-84
2022/12/23 16:08:12;;;;;;;2.87;1.10;;;14.10;99.90;;;;;;4892389;29;20060;-83
2022/12/23 16:10:54;;;;;;;2.40;1.10;;;14.10;99.90;;;;;;4895601;29;20277;-84
2022/12/23 16:13:22;;;;;;;2.70;1.02;;;14.10;99.90;;;;;;4890778;29;20052;-82
2022/12/23 16:15:49;;;;;;;1.60;1.02;;;14.00;99.90;;;;;;4897607;29;20109;-83
2022/12/23 16:18:20;;;;;;;4.40;1.23;;;14.00;99.90;;;;;;4894321;29;20045;-84
2022/12/23 16:21:02;;;;;;;2.33;1.45;;;14.00;99.90;;;;;;4892952;29;20084;-83
2022/12/23 16:23:33;;;;;;;2.17;0.95;;;14.10;99.90;;;;;;4888072;29;20056;-83
2022/12/23 16:26:01;;;;;;;2.63;1.00;;;13.90;99.90;;;;;;4885375;29;20060;-82
2022/12/23 16:28:56;;;;;;;1.88;1.30;;;14.10;99.90;;;;;;4896023;29;20068;-82
2022/12/23 16:31:23;;;;;;;2.60;1.50;;;14.00;99.90;;;;;;4882761;29;20064;-83
2022/12/23 16:33:54;;;;;;;3.30;1.10;;;14.00;99.90;;;;;;4894512;29;20091;-83
2022/12/23 16:36:23;;;;;;;;;;;14.00;99.90;;;;;;4886477;29;20053;-85
2022/12/23 16:39:05;;;;;;;1.00;0.90;;;14.00;99.90;;;;;;4886757;29;20444;-83
2022/12/23 16:41:33;;;;;;;3.60;1.38;;;14.00;99.90;;;;;;4881523;29;20049;-83
2022/12/23 16:44:01;;;;;;;2.10;1.20;;;14.00;99.90;;;;;;4884831;29;20048;-85
2022/12/23 16:46:34;;;;;;;1.63;1.05;;;14.00;99.90;;;;;;4887788;29;20056;-82
2022/12/23 16:49:03;;;;;;;3.00;1.10;;;14.00;99.90;;;;;;4896006;29;20083;-84
2022/12/23 16:51:32;;;;;;;4.35;1.10;;;14.00;99.90;;;;;;4896644;29;20067;-84
2022/12/23 16:54:00;;;;;;;4.88;1.65;;;14.00;99.90;;;;;;4895864;29;20079;-84
2022/12/23 16:56:33;;;;;;;3.17;1.55;;;13.90;99.90;;;;;;4886608;29;20076;-84
2022/12/23 16:58:59;;;;;;;2.45;1.20;;;13.90;99.90;;;;;;4893315;29;20458;-84
2022/12/23 17:01:32;;;;;;;1.60;0.90;;;13.90;99.90;;;;;;4887111;29;20124;-85
2022/12/23 17:03:59;;;;;;;3.33;1.20;;;13.90;99.90;;;;;;4893617;29;20124;-84
2022/12/23 17:06:26;;;;;;;4.28;0.93;;;13.90;99.90;;;;;;4893166;29;20063;-84
2022/12/23 17:08:53;;;;;;;3.25;1.17;;;13.90;99.90;;;;;;4894203;29;20057;-84
2022/12/23 17:11:42;;;;;;;3.00;1.20;;;13.90;99.90;;;;;;4888132;29;20454;-83
2022/12/23 17:14:15;;;;;;;4.05;1.70;;;13.90;99.90;;;;;;4885606;29;20063;-83
2022/12/23 17:16:42;;;;;;;2.78;0.90;;;13.90;99.90;;;;;;4893687;29;20131;-84
2022/12/23 17:19:10;;;;;;;2.53;1.00;;;13.90;99.90;;;;;;4896830;29;20506;-83
2022/12/23 17:21:38;;;;;;;2.88;1.00;;;13.90;99.90;;;;;;4888240;29;20084;-84
2022/12/23 17:24:08;;;;;;;4.78;1.10;;;13.90;99.90;;;;;;4892822;29;20074;-84
2022/12/23 17:26:34;;;;;;;2.63;1.02;;;13.90;99.90;;;;;;4894435;29;20118;-84
2022/12/23 17:29:02;;;;;;;2.60;1.20;;;13.90;99.90;;;;;;4901249;29;20053;-83
2022/12/23 17:31:30;;;;;;;4.00;0.70;;;13.90;99.90;;;;;;4900256;29;20323;-83
2022/12/23 17:33:57;;;;;;;3.65;1.20;;;14.00;99.90;;;;;;4904548;29;20080;-83
2022/12/23 17:36:24;;;;;;;4.30;1.20;;;14.00;99.90;;;;;;4896239;29;20056;-84
2022/12/23 17:38:51;;;;;;;2.13;0.82;;;14.00;99.90;;;;;;4881628;29;20418;-85
2022/12/23 17:41:28;;;;;;;2.03;1.00;;;14.00;99.90;;;;;;4881250;29;20049;-82
2022/12/23 17:43:55;;;;;;;3.60;1.88;;;14.00;99.90;;;;;;4886882;29;20064;-84
2022/12/23 17:46:23;;;;;;;4.50;2.10;;;14.00;99.90;;;;;;4894907;29;20056;-85
2022/12/23 17:48:50;;;;;;;1.88;1.00;;;14.00;99.90;;;;;;4889513;29;20052;-84
2022/12/23 17:51:19;;;;;;;3.83;0.98;;;14.00;99.90;;;;;;4891793;29;20053;-83
2022/12/23 17:53:47;;;;;;;1.42;0.70;;;14.00;99.90;;;;;;4896156;29;20053;-83
2022/12/23 17:56:23;;;;;;;3.90;0.90;;;14.00;99.90;;;;;;4891617;29;20057;-84
2022/12/23 17:58:50;;;;;;;2.28;1.00;;;14.10;99.90;;;;;;4898471;29;20048;-84
2022/12/23 18:01:28;;;;;;;3.97;1.10;;;14.10;99.90;;;;;;4900066;29;20128;-84
2022/12/23 18:03:57;;;;;;;1.23;0.70;;;14.10;99.90;;;;;;4893419;29;20064;-83
2022/12/23 18:06:26;;;;;;;2.03;0.90;;;14.10;99.90;;;;;;4894160;29;20434;-84
2022/12/23 18:08:53;;;;;;;1.25;0.90;;;14.10;99.90;;;;;;4898428;29;20136;-84
2022/12/23 18:11:21;;;;;;;1.85;0.80;;;14.10;99.90;;;;;;4892193;29;20049;-85
2022/12/23 18:13:50;;;;;;;3.58;1.00;;;14.10;99.90;;;;;;4886607;29;20084;-84
2022/12/23 18:16:17;;;;;;;1.08;0.82;;;14.10;99.90;;;;;;4892315;29;20057;-85
2022/12/23 18:18:43;;;;;;;1.75;0.90;;;14.10;99.90;;;;;;4887311;29;20049;-83
2022/12/23 18:21:19;;;;;;;2.90;1.00;;;14.10;99.90;;;;;;4892297;29;20091;-85
2022/12/23 18:23:46;;;;;;;3.13;1.23;;;14.10;99.90;;;;;;4896596;29;20072;-84
2022/12/23 18:26:16;;;;;;;3.08;1.35;;;14.10;99.90;;;;;;4887629;29;20053;-84
2022/12/23 18:28:43;;;;;;;2.95;1.05;;;14.10;99.90;;;;;;4896946;29;20080;-85
2022/12/23 18:31:19;;;;;;;3.00;1.17;;;14.10;99.90;;;;;;4897628;29;20056;-84
2022/12/23 18:33:46;;;;;;;3.50;1.20;;;14.00;99.90;;;;;;4896619;29;20056;-84
2022/12/23 18:36:26;;;;;;;1.73;0.98;;;14.10;99.90;;;;;;4902974;29;20100;-85
2022/12/23 18:38:53;;;;;;;1.63;1.10;;;14.00;99.90;;;;;;4913051;29;20043;-86
2022/12/23 18:41:21;;;;;;;1.30;0.90;;;14.00;99.90;;;;;;4920762;29;20037;-86
2022/12/23 18:43:48;;;;;;;2.50;1.33;;;14.10;99.90;;;;;;4915308;29;20036;-83
2022/12/23 18:46:16;;;;;;;4.20;2.03;;;14.00;99.90;;;;;;4894925;29;20045;-83
2022/12/23 18:48:43;;;;;;;1.65;0.98;;;14.00;99.90;;;;;;4890243;29;20123;-83
2022/12/23 18:51:13;;;;;;;1.27;1.00;;;14.00;99.90;;;;;;4896584;29;20140;-84
2022/12/23 18:53:42;;;;;;;3.88;1.38;;;14.00;99.90;;;;;;4896456;29;20041;-84
2022/12/23 18:56:15;;;;;;;5.43;1.60;;;14.00;99.90;;;;;;4910537;29;20064;-82
2022/12/23 18:58:42;;;;;;;4.18;1.50;;;14.00;99.90;;;;;;4893646;29;20045;-84
2022/12/23 19:01:16;;;;;;;2.20;1.15;;;14.00;99.90;;;;;;4894352;29;20100;-84
2022/12/23 19:03:43;;;;;;;4.43;1.40;;;14.00;99.90;;;;;;4892013;29;20408;-83
2022/12/23 19:06:12;;;;;;;2.25;1.50;;;14.00;99.90;;;;;;4893102;29;20056;-84
2022/12/23 19:08:40;;;;;;;4.47;1.80;;;14.00;99.90;;;;;;4890169;29;20053;-84
2022/12/23 19:11:16;;;;;;;2.60;1.30;;;14.00;99.90;;;;;;4887031;29;20059;-85
2022/12/23 19:13:43;;;;;;;3.38;1.33;;;13.90;99.90;;;;;;4897441;29;20080;-84
2022/12/23 19:16:19;;;;;;;3.78;1.20;;;14.00;99.90;;;;;;4897269;29;20514;-84
2022/12/23 19:18:47;;;;;;;2.75;1.15;;;14.00;99.90;;;;;;4892727;29;20049;-83
2022/12/23 19:21:14;;;;;;;2.50;0.90;;;14.00;99.90;;;;;;4892142;29;20053;-83
2022/12/23 19:23:41;;;;;;;3.42;1.10;;;14.00;99.90;;;;;;4888770;29;20056;-84
2022/12/23 19:26:10;;;;;;;1.55;1.00;;;14.00;99.90;;;;;;4896242;29;20140;-82
2022/12/23 19:28:37;;;;;;;2.50;1.30;;;14.00;99.90;;;;;;4892585;29;20061;-84
2022/12/23 19:31:11;;;;;;;4.95;1.25;;;14.00;99.90;;;;;;4899619;29;20053;-83
2022/12/23 19:33:40;;;;;;;2.95;1.10;;;13.90;99.90;;;;;;4897439;29;20060;-83
2022/12/23 19:36:11;;;;;;;3.47;1.33;;;13.90;99.90;;;;;;4891854;29;20052;-82
2022/12/23 19:38:39;;;;;;;1.42;1.10;;;13.90;99.90;;;;;;4893363;29;20056;-83
2022/12/23 19:41:06;;;;;;;3.70;1.45;;;13.90;99.90;;;;;;4900186;29;20063;-83
2022/12/23 19:43:34;;;;;;;2.38;1.30;;;13.80;99.90;;;;;;4889152;29;20519;-83
2022/12/23 19:46:04;;;;;;;3.55;1.50;;;13.80;99.90;;;;;;4891595;29;20060;-84
2022/12/23 19:48:32;;;;;;;3.83;1.30;;;13.80;99.90;;;;;;4889897;29;20063;-83
2022/12/23 19:51:01;;;;;;;2.08;1.30;;;13.80;99.90;;;;;;4894094;29;20052;-84
2022/12/23 19:53:28;;;;;;;2.42;1.30;;;13.70;99.90;;;;;;4890948;29;20087;-84
2022/12/23 19:56:00;;;;;;;1.88;1.20;;;13.70;99.90;;;;;;4888655;29;20049;-83
2022/12/23 19:58:29;;;;;;;1.83;1.30;;;13.60;99.90;;;;;;4893486;29;20053;-83
2022/12/23 20:01:14;;;;;;;4.30;1.30;;;13.60;99.90;;;;;;4899879;29;20052;-85
2022/12/23 20:03:42;;;;;;;4.03;1.58;;;13.60;99.90;;;;;;4895655;29;20053;-83
2022/12/23 20:06:24;;;;;;;1.27;1.00;;;13.60;99.90;;;;;;4899143;29;20139;-83